Flight Track Log - Related Links

Times and Time Zones

All times are in EDT time to prevent confusion due to time zone crossing. See the N600TR flight status page for this flight to view local times or setup timezone preferences in your user account.


Time Position Orientation Groundspeed Altitude Reporting Facility
EDT Latitude Longitude Course Direction KTS MPH feet Rate Location/Type
Tue 09:49:01 AM 41.9333 -87.8667 170° South 185 213 3,300  Level Chicago TRACON
Tue 09:50:42 AM 41.8353 -87.8211 161° South 258 297 6,800 2,319 Climbing Chicago Center
Tue 09:51:00 AM 41.5882 -87.7223 171° South  Level Estimated
Tue 09:51:44 AM 41.7594 -87.8139 176° South 272 313 9,600  Level Chicago Center
Tue 09:52:00 AM 41.4898 -87.6766 168° South  Level Estimated
Tue 09:52:46 AM 41.6781 -87.8111 179° South 291 335 11,900  Level Chicago Center
Tue 09:53:00 AM 41.3913 -87.6310 180° South  Level Estimated
Tue 09:53:49 AM 41.5958 -87.8072 178° South 296 341 14,300  Level Chicago Center
Tue 09:54:00 AM 41.2919 -87.5850 170° South  Level Estimated
Tue 09:54:51 AM 41.5111 -87.7861 169° South 305 351 16,300  Level Chicago Center
Tue 09:55:53 AM 41.3972 -87.7514 167° South 346 398 17,400 1,065 Climbing Chicago Center
Tue 09:56:55 AM 41.2903 -87.7231 169° South 385 443 18,500 1,452 Climbing Chicago Center
Tue 09:57:57 AM 41.1833 -87.6928 168° South 392 451 20,400 1,597 Climbing Chicago Center
Tue 09:58:59 AM 41.0742 -87.6622 168° South 399 459 21,800 1,333 Climbing Chicago Center
Tue 10:00:03 AM 40.9636 -87.6306 168° South 405 466 23,200 1,381 Climbing Chicago Center
Tue 10:01:05 AM 40.8397 -87.5556 155° Southeast 411 473 24,700 1,306 Climbing Chicago Center
Tue 10:02:07 AM 40.7300 -87.5039 160° South 418 481 25,900 1,210 Climbing Chicago Center
Tue 10:03:09 AM 40.6164 -87.4619 164° South 424 488 27,200 1,355 Climbing Chicago Center
Tue 10:04:11 AM 40.5025 -87.4317 169° South 420 483 28,700 871 Climbing Chicago Center
Tue 10:05:13 AM 40.3792 -87.3922 166° South 423 487 29,000 145 Climbing Chicago Center
Tue 10:06:15 AM 40.2603 -87.3706 172° South 432 497 29,000 144 Level Chicago Center
Tue 10:07:18 AM 40.1419 -87.3447 171° South 434 499 29,300 911 Climbing Chicago Center
Tue 10:08:07 AM 40.0453 -87.3275 172° South 433 498 30,700 1,676 Climbing Indianapolis Center
Tue 10:09:09 AM 39.9336 -87.3050 171° South 416 479 32,400 1,113 Climbing Indianapolis Center
Tue 10:10:11 AM 39.8000 -87.2739 170° South 409 471 33,000 290 Climbing Indianapolis Center
Tue 10:11:13 AM 39.6864 -87.2475 170° South 414 476 33,000  Level Indianapolis Center
Tue 10:12:15 AM 39.5706 -87.2208 170° South 424 488 33,000  Level Indianapolis Center
Tue 10:13:17 AM 39.4547 -87.1933 170° South 426 490 33,000  Level Indianapolis Center
Tue 10:14:19 AM 39.3389 -87.1656 169° South 426 490 33,000  Level Indianapolis Center
Tue 10:15:21 AM 39.1997 -87.1306 169° South 427 491 33,000  Level Indianapolis Center
Tue 10:16:23 AM 39.0906 -87.1039 169° South 428 493 33,000  Level Indianapolis Center
Tue 10:17:25 AM 38.9758 -87.0681 166° South 424 488 33,000  Level Indianapolis Center
Tue 10:18:27 AM 38.8606 -87.0183 161° South 431 496 33,000  Level Indianapolis Center
Tue 10:19:29 AM 38.7250 -86.9525 159° South 430 495 33,000  Level Indianapolis Center
Tue 10:20:31 AM 38.6114 -86.8975 159° South 431 496 33,000  Level Indianapolis Center
Tue 10:21:33 AM 38.4975 -86.8422 159° South 432 497 33,000  Level Indianapolis Center
Tue 10:22:35 AM 38.3844 -86.7853 158° South 428 493 33,000  Level Indianapolis Center
Tue 10:23:37 AM 38.2697 -86.7314 160° South 430 495 33,000  Level Indianapolis Center
Tue 10:24:39 AM 38.1569 -86.6758 159° South 429 494 33,000  Level Indianapolis Center
Tue 10:25:41 AM 38.0411 -86.6356 165° South 426 490 33,000  Level Indianapolis Center
Tue 10:26:43 AM 37.9242 -86.6039 168° South 426 490 33,000  Level Indianapolis Center
Tue 10:27:45 AM 37.8058 -86.5836 172° South 426 490 33,000  Level Indianapolis Center
Tue 10:28:47 AM 37.6883 -86.5658 173° South 424 488 33,000  Level Indianapolis Center
Tue 10:29:49 AM 37.5442 -86.5506 175° South 430 495 33,000  Level Indianapolis Center
Tue 10:30:51 AM 37.4203 -86.5450 178° South 427 491 33,000  Level Indianapolis Center
Tue 10:31:53 AM 37.2989 -86.5361 177° South 431 496 33,000  Level Indianapolis Center
Tue 10:32:55 AM 37.1775 -86.5217 175° South 432 497 33,000  Level Indianapolis Center
Tue 10:33:57 AM 37.0567 -86.5214 180° South 437 503 33,000  Level Indianapolis Center
Tue 10:34:58 AM 36.9475 -86.5828 204° Southwest 427 491 33,000  Level Indianapolis Center
Tue 10:36:00 AM 36.8386 -86.6433 204° Southwest 423 487 33,000  Level Indianapolis Center
Tue 10:37:02 AM 36.7289 -86.7033 204° Southwest 425 489 33,000  Level Indianapolis Center
Tue 10:38:04 AM 36.6194 -86.7636 204° Southwest 427 491 33,000  Level Indianapolis Center
Tue 10:39:12 AM 36.4983 -86.8333 205° Southwest 424 488 33,000  Level Memphis Center
Tue 10:40:12 AM 36.3772 -86.9056 206° Southwest 424 488 33,000  Level Memphis Center
Tue 10:41:12 AM 36.2511 -86.9419 193° South 455 524 33,000  Level Memphis Center
Tue 10:42:12 AM 36.1283 -86.9494 183° South 449 517 33,000  Level Memphis Center
Tue 10:43:12 AM 36.0078 -86.9572 183° South 442 509 33,000  Level Memphis Center
Tue 10:44:12 AM 35.9022 -86.9153 162° South 437 503 33,000  Level Memphis Center
Tue 10:45:47 AM 35.7386 -86.7456 140° Southeast 461 531 33,000  Level Atlanta Center
Tue 10:46:47 AM 35.6514 -86.6328 134° Southeast 454 522 33,000  Level Atlanta Center
Tue 10:47:47 AM 35.5597 -86.5200 135° Southeast 454 522 33,000  Level Atlanta Center
Tue 10:48:47 AM 35.4744 -86.4078 133° Southeast 454 522 33,000  Level Atlanta Center
Tue 10:49:48 AM 35.3889 -86.2958 133° Southeast 454 522 33,000 -400 Level Atlanta Center
Tue 10:50:47 AM 35.3011 -86.1814 133° Southeast 454 522 32,200 -1,361 Descending Atlanta Center
Tue 10:51:47 AM 35.2092 -86.0722 136° Southeast 460 529 30,300 -2,050 Descending Atlanta Center
Tue 10:52:47 AM 35.1125 -85.9786 142° Southeast 460 529 28,100 -2,050 Descending Atlanta Center
Tue 10:53:47 AM 35.0097 -85.8825 143° Southeast 460 529 26,200 -1,850 Descending Atlanta Center
Tue 10:54:47 AM 34.9044 -85.7989 147° Southeast 460 529 24,400 -1,100 Descending Atlanta Center
Tue 10:55:47 AM 34.8014 -85.7183 147° Southeast 452 520 24,000 -200 Descending Atlanta Center
Tue 10:56:47 AM 34.7022 -85.6381 146° Southeast 440 506 24,000  Level Atlanta Center
Tue 10:57:47 AM 34.6072 -85.5606 146° Southeast 428 493 24,000 -1,300 Level Atlanta Center
Tue 10:58:47 AM 34.5206 -85.4783 142° Southeast 416 479 21,400 -2,600 Descending Atlanta Center
Tue 10:59:47 AM 34.4400 -85.3914 138° Southeast 400 460 18,800 -2,600 Descending Atlanta Center
Tue 11:00:47 AM 34.3639 -85.3047 137° Southeast 387 445 16,200 -2,500 Descending Atlanta Center
Tue 11:01:47 AM 34.2831 -85.2306 143° Southeast 375 432 13,800 -1,600 Descending Atlanta Center
Tue 11:02:47 AM 34.2067 -85.1642 144° Southeast 353 406 13,000 -400 Descending Atlanta Center
Tue 11:03:47 AM 34.1467 -85.0931 136° Southeast 332 382 13,000  Level Atlanta Center
Tue 11:04:47 AM 34.0972 -85.0222 130° Southeast 284 327 13,000 -500 Level Atlanta Center
Tue 11:05:47 AM 34.0433 -84.9639 138° Southeast 264 304 12,000 -1,200 Descending Atlanta Center
Tue 11:06:47 AM 33.9978 -84.8983 130° Southeast 253 291 10,600 -1,250 Descending Atlanta Center
Tue 11:07:47 AM 33.9567 -84.8403 130° Southeast 253 291 9,500 -800 Descending Atlanta Center
Tue 11:08:47 AM 33.9111 -84.7772 131° Southeast 248 285 9,000 -864 Descending Atlanta Center
Tue 11:09:45 AM 33.8667 -84.7167 131° Southeast 242 278 7,800 -1,220 Descending Atlanta TRACON
Tue 11:10:45 AM 33.8000 -84.6833 157° South 234 269 6,600 -900 Descending Atlanta TRACON
Tue 11:11:45 AM 33.7500 -84.7000 195° South 240 276 6,000 -700 Descending Atlanta TRACON
Tue 11:12:45 AM 33.7333 -84.7833 256° West 236 272 5,200 -500 Descending Atlanta TRACON
Tue 11:13:45 AM 33.6833 -84.8167 209° Southwest 232 267 5,000 -150 Descending Atlanta TRACON
Tue 11:14:45 AM 33.6500 -84.7667 129° Southeast 190 219 4,900  Descending Atlanta TRACON
Tue 11:15:45 AM 33.6500 -84.7167 90° East 187 215 5,000 -300 Climbing Atlanta TRACON
Tue 11:16:45 AM 33.6500 -84.6500 90° East 185 213 4,300 -800 Descending Atlanta TRACON
Tue 11:17:45 AM 33.6500 -84.5833 90° East 185 213 3,400 -950 Descending Atlanta TRACON
Tue 11:18:45 AM 33.6500 -84.5333 90° East 155 178 2,400 -800 Descending Atlanta TRACON
Tue 11:19:45 AM 33.6500 -84.4833 90° East 132 152 1,800 -650 Descending Atlanta TRACON
Tue 11:20:45 AM 33.6500 -84.4500 90° East 132 152 1,100 -700 Descending Atlanta TRACON

Login

Don't have an account? Register now (free) for customized features, flight alerts, and more!